Time;durP1;ratioP1;P1;durP2;ratioP2;P2;SDS_P1;SDS_P2;PMS_P1;PMS_P2;Temp;Humidity;BMP_temperature;BMP_pressure;BME280_temperature;BME280_humidity;BME280_pressure;Samples;Min_cycle;Max_cycle;Signal;HPM_P1;HPM_P2
2022/12/27 00:02:16;;;;;;;16.17;11.48;;;;;;;6.70;100.00;100103.31;3245115;83;22176;-75
2022/12/27 00:07:08;;;;;;;15.68;11.97;;;;;;;6.67;99.97;100108.40;3279727;84;21046;-76
2022/12/27 00:11:59;;;;;;;15.63;12.85;;;;;;;6.73;100.00;100101.23;3275442;84;21101;-75
2022/12/27 00:16:50;;;;;;;14.93;12.45;;;;;;;6.76;100.00;100095.72;3297095;84;20999;-76
2022/12/27 00:21:41;;;;;;;15.43;13.48;;;;;;;6.78;100.00;100094.43;3324776;84;22601;-76
2022/12/27 00:26:34;;;;;;;15.78;13.60;;;;;;;6.80;100.00;100099.24;3290378;84;21801;-76
2022/12/27 00:31:28;;;;;;;17.35;13.05;;;;;;;6.81;100.00;100103.55;3297928;84;21034;-77
2022/12/27 00:36:23;;;;;;;14.68;12.60;;;;;;;6.83;100.00;100097.99;3313710;84;21062;-76
2022/12/27 00:41:16;;;;;;;15.15;13.00;;;;;;;6.83;100.00;100095.41;3284330;84;21463;-77
2022/12/27 00:46:08;;;;;;;16.55;13.08;;;;;;;6.82;100.00;100101.01;3306245;84;21549;-76
2022/12/27 00:51:07;;;;;;;16.32;13.20;;;;;;;6.84;100.00;100101.91;3289672;84;21573;-76
2022/12/27 00:55:58;;;;;;;15.80;13.25;;;;;;;6.86;100.00;100112.28;3282404;84;21127;-76
2022/12/27 01:00:51;;;;;;;14.55;12.73;;;;;;;6.87;100.00;100116.20;3263858;84;21088;-76
2022/12/27 01:05:42;;;;;;;16.12;12.23;;;;;;;6.91;100.00;100116.28;3256320;84;20975;-77
2022/12/27 01:10:34;;;;;;;14.80;12.63;;;;;;;6.89;99.97;100109.78;3300622;84;20980;-76
2022/12/27 01:15:25;;;;;;;15.20;12.10;;;;;;;6.89;99.98;100114.08;3314247;84;22788;-76
2022/12/27 01:20:16;;;;;;;14.80;13.27;;;;;;;6.86;99.84;100109.70;3314133;84;20896;-76
2022/12/27 01:25:08;;;;;;;16.95;13.03;;;;;;;6.85;99.98;100103.67;3249916;84;21700;-76
2022/12/27 01:29:59;;;;;;;13.80;12.37;;;;;;;6.82;99.63;100111.34;3297566;84;21058;-77
2022/12/27 01:34:50;;;;;;;16.27;13.98;;;;;;;6.80;99.60;100119.48;3249027;84;21434;-76
2022/12/27 01:39:41;;;;;;;14.90;12.40;;;;;;;6.86;100.00;100091.61;3314638;84;21520;-76
2022/12/27 01:44:48;;;;;;;13.13;11.73;;;;;;;6.90;99.93;100100.30;3321836;83;21371;-76
2022/12/27 01:49:39;;;;;;;13.25;11.10;;;;;;;6.91;99.51;100105.94;3316306;84;21031;-76
2022/12/27 01:54:30;;;;;;;14.50;12.88;;;;;;;6.91;99.51;100105.94;3294367;84;21455;-75
2022/12/27 01:59:23;;;;;;;13.68;12.05;;;;;;;6.91;99.78;100111.11;3277469;84;21722;-75
2022/12/27 02:04:18;;;;;;;14.63;12.70;;;;;;;6.94;100.00;100098.23;3281352;84;21649;-75
2022/12/27 02:09:39;;;;;;;13.62;11.38;;;;;;;6.93;99.91;100099.95;3324124;84;20999;-75
2022/12/27 02:14:38;;;;;;;17.17;11.90;;;;;;;6.96;99.80;100086.24;3339136;84;20983;-75
2022/12/27 02:19:49;;;;;;;15.43;12.03;;;;;;;6.92;99.79;100079.23;3339943;84;20925;-75
2022/12/27 02:25:05;;;;;;;14.68;11.57;;;;;;;6.93;99.67;100086.16;3303287;84;21641;-76
2022/12/27 02:30:07;;;;;;;11.53;9.83;;;;;;;6.93;99.83;100074.11;3303162;84;21167;-77
2022/12/27 02:35:10;;;;;;;13.60;11.30;;;;;;;6.95;99.81;100072.42;3277588;84;20974;-75
2022/12/27 03:07:46;;;;;;;12.58;9.85;;;;;;;7.14;100.00;100093.08;3335210;84;21489;-75
2022/12/27 03:18:13;;;;;;;13.03;9.08;;;;;;;7.18;100.00;100094.02;3339155;84;21596;-75
2022/12/27 03:33:32;;;;;;;11.22;10.10;;;;;;;7.18;99.97;100114.27;3356240;83;21017;-75
2022/12/27 03:38:24;;;;;;;7.72;6.28;;;;;;;7.18;99.85;100131.08;3313044;83;20991;-75
2022/12/27 03:43:16;;;;;;;5.70;3.67;;;;;;;7.14;98.94;100136.17;3279349;83;21461;-76
2022/12/27 03:48:11;;;;;;;4.12;3.37;;;;;;;6.89;95.67;100176.11;3325186;83;20991;-75
2022/12/27 03:53:16;;;;;;;4.28;2.17;;;;;;;6.30;93.86;100192.75;3288225;83;21418;-76
2022/12/27 03:58:08;;;;;;;3.20;1.70;;;;;;;5.88;93.19;100233.30;3310590;83;20986;-76
2022/12/27 04:02:59;;;;;;;2.47;1.35;;;;;;;5.54;93.14;100256.82;3293437;83;21053;-76
2022/12/27 04:38:49;;;;;;;1.37;1.00;;;;;;;4.42;92.47;100333.02;3234435;85;22075;-75
2022/12/27 05:04:18;;;;;;;2.22;1.50;;;;;;;4.42;93.04;100341.64;3224119;85;21020;-75
2022/12/27 05:14:19;;;;;;;4.55;2.35;;;;;;;4.37;92.68;100362.06;3264221;85;20987;-75
2022/12/27 05:19:13;;;;;;;2.47;1.17;;;;;;;4.35;92.54;100367.98;3203977;85;21031;-76
2022/12/27 05:29:15;;;;;;;2.22;1.17;;;;;;;4.16;92.35;100391.73;3335397;83;21480;-75
2022/12/27 05:34:07;;;;;;;6.05;1.70;;;;;;;4.05;91.94;100409.76;3348191;83;20994;-76
2022/12/27 05:38:59;;;;;;;4.70;1.62;;;;;;;3.90;91.57;100411.72;3305952;83;21027;-76
2022/12/27 05:43:50;;;;;;;5.40;1.22;;;;;;;3.79;92.04;100420.30;3330760;83;20965;-77
2022/12/27 05:48:41;;;;;;;3.35;1.90;;;;;;;3.70;92.30;100423.80;3278114;83;20931;-75
2022/12/27 05:53:33;;;;;;;5.62;1.80;;;;;;;3.59;91.94;100435.81;3286053;83;22140;-75
2022/12/27 05:58:25;;;;;;;6.30;1.57;;;;;;;3.53;92.31;100451.41;3272558;84;21521;-75
2022/12/27 06:03:16;;;;;;;18.57;1.60;;;;;;;3.49;92.47;100462.36;3329505;84;22173;-75
2022/12/27 06:08:08;;;;;;;7.75;1.67;;;;;;;3.42;92.33;100472.41;3336489;84;20989;-75
2022/12/27 06:13:01;;;;;;;5.83;1.60;;;;;;;3.31;92.02;100472.38;3281642;85;20970;-75
2022/12/27 06:17:52;;;;;;;7.40;1.80;;;;;;;3.24;92.27;100478.06;3323121;84;21013;-75
2022/12/27 06:22:43;;;;;;;3.72;1.50;;;;;;;3.23;92.36;100499.42;3321249;83;21024;-75
2022/12/27 06:27:34;;;;;;;6.92;2.75;;;;;;;3.20;92.13;100505.70;3282582;83;20979;-75
2022/12/27 06:32:25;;;;;;;11.70;2.20;;;;;;;3.16;92.19;100511.53;3295281;84;21461;-75
2022/12/27 06:37:17;;;;;;;4.70;2.30;;;;;;;3.13;92.24;100512.67;3281003;84;20987;-75
2022/12/27 06:42:08;;;;;;;6.78;2.27;;;;;;;3.10;92.14;100516.41;3252840;84;21870;-75
2022/12/27 06:46:59;;;;;;;11.35;2.85;;;;;;;3.02;91.96;100523.38;3332313;85;20927;-75
2022/12/27 06:51:50;;;;;;;8.43;3.02;;;;;;;3.01;92.23;100533.16;3292095;84;21031;-75
2022/12/27 06:56:41;;;;;;;5.03;2.55;;;;;;;3.00;92.15;100547.22;3295461;84;21519;-76
2022/12/27 07:01:32;;;;;;;11.22;3.10;;;;;;;2.97;91.99;100553.11;3264395;84;21517;-75
2022/12/27 07:06:27;;;;;;;5.17;2.62;;;;;;;2.95;91.90;100566.30;3316003;84;21799;-75
2022/12/27 07:11:20;;;;;;;9.18;3.12;;;;;;;2.97;91.92;100580.08;3326834;84;21487;-76
2022/12/27 07:16:14;;;;;;;11.65;2.65;;;;;;;2.98;91.62;100581.81;3317483;84;21043;-76
2022/12/27 07:21:16;;;;;;;8.73;3.12;;;;;;;3.01;91.85;100599.95;3285291;84;20995;-77
2022/12/27 07:26:15;;;;;;;8.60;3.67;;;;;;;2.99;91.47;100604.14;3276399;84;21016;-76
2022/12/27 07:31:14;;;;;;;15.43;3.70;;;;;;;2.99;91.66;100609.27;3257354;83;21925;-75
2022/12/27 07:36:10;;;;;;;11.90;2.80;;;;;;;2.96;91.41;100627.11;3341279;83;21481;-75
2022/12/27 07:41:03;;;;;;;10.85;3.45;;;;;;;2.98;91.52;100633.19;3302844;83;21033;-76
2022/12/27 07:45:54;;;;;;;12.80;2.75;;;;;;;3.00;91.29;100635.83;3296976;84;21007;-75
2022/12/27 07:50:56;;;;;;;10.15;3.00;;;;;;;3.03;91.16;100631.72;3259790;85;20915;-76
2022/12/27 07:55:49;;;;;;;5.83;2.83;;;;;;;3.16;91.45;100645.12;3286344;83;21245;-76
2022/12/27 08:00:40;;;;;;;10.85;4.78;;;;;;;3.30;91.52;100653.05;3321382;84;20980;-76
2022/12/27 08:05:31;;;;;;;17.42;3.22;;;;;;;3.44;91.62;100668.69;3263590;84;21621;-76
2022/12/27 08:10:22;;;;;;;9.53;3.12;;;;;;;3.56;91.68;100677.75;3250243;84;21105;-77
2022/12/27 08:15:14;;;;;;;8.65;3.33;;;;;;;3.65;90.80;100682.05;3298014;83;21563;-77
2022/12/27 08:20:08;;;;;;;8.20;2.37;;;;;;;3.71;90.76;100690.02;3305986;84;21388;-76
2022/12/27 08:24:59;;;;;;;7.35;2.37;;;;;;;3.92;90.09;100693.07;3232888;85;21036;-76
2022/12/27 08:29:50;;;;;;;8.58;2.98;;;;;;;3.99;90.41;100706.67;3269748;83;20972;-75
2022/12/27 08:34:47;;;;;;;8.98;3.22;;;;;;;4.04;90.26;100711.58;3273187;84;20983;-76
2022/12/27 08:39:36;;;;;;;8.78;2.55;;;;;;;4.02;90.57;100720.93;3318006;84;20987;-76
2022/12/27 08:44:27;;;;;;;11.22;3.22;;;;;;;4.16;90.71;100714.69;3272880;83;21741;-76
2022/12/27 08:49:18;;;;;;;8.10;3.22;;;;;;;4.19;90.10;100717.39;3321641;83;21081;-75
2022/12/27 08:54:09;;;;;;;11.90;4.08;;;;;;;4.25;90.18;100709.05;3306189;83;20996;-75
2022/12/27 08:59:01;;;;;;;10.82;3.20;;;;;;;4.44;89.99;100723.59;3316494;84;21505;-76
2022/12/27 09:03:54;;;;;;;9.30;3.72;;;;;;;4.50;89.58;100733.27;3275486;84;22057;-76
2022/12/27 09:08:53;;;;;;;12.40;4.35;;;;;;;4.47;89.65;100731.45;3330374;83;21030;-77
2022/12/27 09:13:43;;;;;;;10.20;3.98;;;;;;;4.37;89.55;100731.45;3323968;82;21135;-78
2022/12/27 09:18:42;;;;;;;13.50;3.92;;;;;;;4.33;89.84;100742.86;3294666;84;21029;-77
2022/12/27 09:23:36;;;;;;;12.63;4.17;;;;;;;4.34;89.32;100747.17;3348162;83;21288;-76
2022/12/27 09:28:30;;;;;;;11.78;3.98;;;;;;;4.35;89.20;100743.80;3354606;82;21011;-77
2022/12/27 09:33:27;;;;;;;13.22;4.62;;;;;;;4.39;89.20;100759.84;3322824;82;21038;-76
2022/12/27 09:38:25;;;;;;;8.18;3.50;;;;;;;4.43;89.37;100756.57;3341414;83;20979;-75
2022/12/27 09:43:30;;;;;;;9.03;3.27;;;;;;;4.52;89.23;100760.81;3334321;84;20947;-75
2022/12/27 09:48:41;;;;;;;8.78;4.15;;;;;;;4.65;89.11;100769.97;3345534;84;21471;-77
2022/12/27 09:53:58;;;;;;;9.88;3.80;;;;;;;4.65;89.11;100769.97;3322620;84;21039;-75
2022/12/27 09:59:10;;;;;;;10.63;3.35;;;;;;;4.74;88.08;100761.33;3308335;84;21435;-74
2022/12/27 10:04:03;;;;;;;10.25;4.03;;;;;;;4.73;88.31;100775.01;3276516;84;21533;-75
2022/12/27 10:09:51;;;;;;;6.87;3.02;;;;;;;4.70;87.90;100768.84;3298974;83;21283;-75
2022/12/27 10:15:08;;;;;;;7.58;2.87;;;;;;;4.66;87.82;100768.26;3314327;83;21040;-75
2022/12/27 10:20:23;;;;;;;10.05;4.08;;;;;;;4.65;87.69;100762.63;3300673;84;21004;-74
2022/12/27 10:25:18;;;;;;;9.40;3.17;;;;;;;4.62;87.92;100776.69;3312259;84;21019;-74
2022/12/27 10:30:18;;;;;;;6.42;2.95;;;;;;;4.57;87.50;100773.90;3334200;84;21660;-74
2022/12/27 10:35:15;;;;;;;7.65;3.67;;;;;;;4.59;87.14;100773.13;3359357;84;20973;-74
2022/12/27 10:40:18;;;;;;;13.78;6.03;;;;;;;4.57;87.45;100779.92;3328704;84;21428;-76
2022/12/27 10:45:38;;;;;;;9.05;4.08;;;;;;;4.64;87.40;100782.77;3361093;83;21074;-75
2022/12/27 10:50:29;;;;;;;10.63;3.65;;;;;;;4.73;87.38;100783.15;3340587;84;22699;-76
2022/12/27 10:55:38;;;;;;;7.30;3.80;;;;;;;4.90;87.16;100788.60;3317896;84;21446;-75
2022/12/27 11:00:29;;;;;;;5.95;4.37;;;;;;;4.93;86.04;100788.70;3334249;82;21656;-74
2022/12/27 11:05:31;;;;;;;9.53;3.55;;;;;;;4.88;86.01;100793.20;3255465;84;21006;-74
2022/12/27 11:10:25;;;;;;;10.80;3.83;;;;;;;4.86;86.07;100798.28;3292624;84;21028;-74
2022/12/27 11:15:18;;;;;;;9.13;4.17;;;;;;;4.92;85.22;100789.95;3311577;84;21053;-73
2022/12/27 11:20:32;;;;;;;7.03;4.65;;;;;;;4.92;85.37;100794.69;3257906;84;21502;-75
2022/12/27 11:25:27;;;;;;;9.00;4.17;;;;;;;4.93;85.37;100808.02;3277086;84;21011;-77
2022/12/27 11:30:26;;;;;;;9.43;3.83;;;;;;;4.90;84.18;100813.08;3302289;83;20995;-76
2022/12/27 11:35:20;;;;;;;6.72;3.33;;;;;;;4.98;83.77;100804.78;3344990;83;20969;-75
2022/12/27 11:40:25;;;;;;;6.17;4.42;;;;;;;5.12;83.09;100801.06;3327784;83;21333;-76
2022/12/27 11:45:38;;;;;;;9.10;4.03;;;;;;;5.15;83.15;100805.94;3383924;83;21225;-77
2022/12/27 11:51:09;;;;;;;9.48;3.55;;;;;;;5.09;83.10;100818.97;3377877;82;21002;-75
2022/12/27 11:56:27;;;;;;;5.22;3.67;;;;;;;5.01;83.18;100822.92;3387512;83;22038;-76
2022/12/27 12:02:11;;;;;;;10.10;3.45;;;;;;;4.96;82.79;100817.59;3347011;83;21584;-75
2022/12/27 12:07:29;;;;;;;8.00;3.62;;;;;;;4.94;83.00;100829.13;3350169;83;21540;-75
2022/12/27 12:12:24;;;;;;;;;;;;;;;4.89;82.27;100831.91;3360717;82;21512;-76
2022/12/27 12:17:39;;;;;;;5.40;2.98;;;;;;;4.86;81.97;100847.23;3393100;83;20148;-77
2022/12/27 12:23:08;;;;;;;6.35;3.95;;;;;;;4.76;82.47;100854.13;3379059;83;20943;-74
2022/12/27 12:28:10;;;;;;;11.80;3.40;;;;;;;4.65;82.71;100854.05;3383708;81;21611;-78
2022/12/27 12:33:35;;;;;;;6.33;3.17;;;;;;;4.53;81.76;100848.85;3329553;84;21364;-76
2022/12/27 12:39:14;;;;;;;7.90;3.08;;;;;;;4.48;81.84;100876.09;3286092;83;21091;-76
2022/12/27 12:44:33;;;;;;;8.03;3.27;;;;;;;4.41;81.84;100863.77;3283109;85;21007;-75
2022/12/27 12:49:57;;;;;;;7.85;2.45;;;;;;;4.38;81.89;100859.75;3261067;84;21543;-75
2022/12/27 12:55:33;;;;;;;7.35;2.60;;;;;;;4.33;80.69;100876.72;3265554;85;21508;-75
2022/12/27 13:00:50;;;;;;;7.85;2.92;;;;;;;4.28;81.46;100864.05;3267256;85;20962;-75
2022/12/27 13:06:05;;;;;;;4.92;2.72;;;;;;;4.27;81.52;100871.28;3133171;90;20952;-75
2022/12/27 13:11:14;;;;;;;4.40;2.90;;;;;;;4.27;81.63;100879.00;3157883;88;21067;-75
2022/12/27 13:16:20;;;;;;;11.40;3.40;;;;;;;4.24;81.61;100877.18;3044225;89;21073;-77
2022/12/27 13:21:46;;;;;;;5.15;3.85;;;;;;;4.21;81.87;100883.47;3051897;91;21092;-75
2022/12/27 13:26:51;;;;;;;9.95;4.03;;;;;;;4.17;81.66;100872.57;3021980;92;21018;-74
2022/12/27 13:31:51;;;;;;;7.70;4.08;;;;;;;4.16;82.22;100874.23;3017097;90;20998;-77
2022/12/27 13:37:22;;;;;;;10.80;4.25;;;;;;;4.13;82.18;100880.55;3039976;91;21182;-78
2022/12/27 13:42:26;;;;;;;7.20;4.97;;;;;;;4.16;82.56;100885.82;3069381;90;21750;-75
2022/12/27 13:47:28;;;;;;;9.30;3.98;;;;;;;4.13;82.70;100893.42;3061405;90;21221;-75
2022/12/27 13:52:38;;;;;;;12.82;3.90;;;;;;;4.14;82.83;100902.89;3125892;87;21734;-75
2022/12/27 13:58:20;;;;;;;6.83;4.62;;;;;;;4.13;83.21;100894.71;3153282;87;21482;-76
2022/12/27 14:03:50;;;;;;;8.60;4.75;;;;;;;4.12;83.31;100921.24;3281312;83;21438;-76
2022/12/27 14:09:37;;;;;;;7.92;4.15;;;;;;;4.09;83.27;100927.52;3337147;83;21569;-75
2022/12/27 14:14:29;;;;;;;8.75;5.03;;;;;;;4.07;83.45;100930.44;3293986;82;21011;-75
2022/12/27 14:19:40;;;;;;;9.33;5.40;;;;;;;4.06;83.72;100932.55;3356201;83;21477;-78
2022/12/27 14:24:57;;;;;;;10.05;5.20;;;;;;;4.06;83.72;100936.80;3319099;83;21009;-77
2022/12/27 14:30:36;;;;;;;15.80;7.47;;;;;;;4.06;83.75;100944.12;3342683;83;21808;-76
2022/12/27 14:36:02;;;;;;;9.63;4.95;;;;;;;4.06;83.82;100945.42;3353334;83;20957;-76
2022/12/27 14:41:18;;;;;;;10.23;4.22;;;;;;;4.05;83.83;100939.78;3340292;83;21510;-77
2022/12/27 14:46:43;;;;;;;8.10;4.33;;;;;;;4.04;83.60;100945.72;3321622;83;23300;-77
2022/12/27 14:51:55;;;;;;;14.55;5.90;;;;;;;4.05;83.62;100954.34;3339218;83;21010;-78
2022/12/27 14:57:06;;;;;;;8.68;5.95;;;;;;;4.05;83.85;100959.08;3355135;83;20997;-76
2022/12/27 15:02:21;;;;;;;10.00;5.72;;;;;;;4.04;83.97;100966.30;3343675;83;21072;-77
2022/12/27 15:07:56;;;;;;;10.90;6.35;;;;;;;4.00;84.59;100961.84;3238996;86;21026;-77
2022/12/27 15:13:05;;;;;;;7.47;5.25;;;;;;;3.96;84.58;100972.80;3250503;86;21275;-77
2022/12/27 15:18:13;;;;;;;7.35;4.55;;;;;;;3.92;84.59;100964.47;3228405;86;21067;-77
2022/12/27 15:23:16;;;;;;;;;;;;;;;3.92;84.46;100982.47;3250850;86;21044;-75
2022/12/27 15:28:31;;;;;;;11.33;4.85;;;;;;;3.90;84.24;100980.20;3181771;87;21117;-75
2022/12/27 15:33:55;;;;;;;11.35;5.50;;;;;;;3.87;84.30;100978.80;3178226;87;22208;-77
2022/12/27 15:38:52;;;;;;;8.63;4.65;;;;;;;3.88;84.55;100979.25;3171155;87;22096;-76
2022/12/27 15:44:36;;;;;;;10.85;6.25;;;;;;;3.86;84.40;100974.44;3216771;85;21509;-77
2022/12/27 15:49:44;;;;;;;;;;;;;;;3.85;84.44;100981.29;3313061;85;21505;-76
2022/12/27 15:55:20;;;;;;;8.88;4.67;;;;;;;3.85;84.56;100983.86;3307222;85;20178;-78
2022/12/27 16:00:28;;;;;;;11.03;5.10;;;;;;;3.88;84.62;100995.97;3258993;86;21102;-79
2022/12/27 16:05:25;;;;;;;9.15;4.58;;;;;;;3.89;84.57;100993.89;3169203;87;21126;-78
2022/12/27 16:10:44;;;;;;;12.57;5.10;;;;;;;3.87;84.20;100998.96;3218070;87;21059;-78
2022/12/27 16:15:50;;;;;;;9.08;5.00;;;;;;;3.87;84.17;100993.81;3202319;86;21023;-77
2022/12/27 16:21:05;;;;;;;8.33;5.42;;;;;;;3.88;84.28;100986.97;3216282;87;21708;-77
2022/12/27 16:26:11;;;;;;;10.72;4.92;;;;;;;3.86;84.19;100984.32;3231317;86;21603;-74
2022/12/27 16:31:10;;;;;;;8.28;4.40;;;;;;;3.88;84.25;100992.12;3251174;84;21276;-75
2022/12/27 16:36:16;;;;;;;5.83;4.40;;;;;;;3.88;83.94;100992.12;3246678;83;21047;-75
2022/12/27 16:41:25;;;;;;;10.35;5.00;;;;;;;3.86;83.95;100993.73;3318834;83;21529;-75
2022/12/27 16:46:31;;;;;;;10.30;5.33;;;;;;;3.86;84.20;100997.59;3265447;83;21043;-75
2022/12/27 16:51:37;;;;;;;12.50;5.37;;;;;;;3.86;84.20;100991.16;3279910;84;21289;-75
2022/12/27 16:56:33;;;;;;;7.20;4.72;;;;;;;3.86;84.36;100997.18;3298332;83;21519;-74
2022/12/27 17:01:36;;;;;;;8.48;5.25;;;;;;;3.85;84.17;101004.85;3301356;84;20997;-75
2022/12/27 17:06:32;;;;;;;11.05;4.55;;;;;;;3.82;84.15;101001.30;3254942;84;20928;-76
2022/12/27 17:11:28;;;;;;;11.10;5.23;;;;;;;3.83;84.17;101015.06;3279556;83;22007;-75
2022/12/27 17:16:31;;;;;;;7.85;4.62;;;;;;;3.84;83.95;101018.51;3302895;83;21202;-75
2022/12/27 17:21:38;;;;;;;7.75;4.90;;;;;;;3.85;84.10;101019.87;3305353;84;21217;-78
2022/12/27 17:26:55;;;;;;;9.73;4.65;;;;;;;3.85;83.85;101017.71;3258292;85;26612;-75
2022/12/27 17:32:10;;;;;;;8.50;5.20;;;;;;;3.87;83.79;101018.67;3284539;85;21050;-74
2022/12/27 17:37:16;;;;;;;11.30;5.25;;;;;;;3.87;83.83;101018.67;3272205;84;21075;-75
2022/12/27 17:47:46;;;;;;;7.75;4.42;;;;;;;3.86;83.82;101029.75;3284621;85;21207;-77
2022/12/27 17:57:54;;;;;;;9.08;4.55;;;;;;;3.81;83.85;101038.13;3277526;85;21474;-76
2022/12/27 18:02:46;;;;;;;8.38;4.87;;;;;;;3.84;83.79;101045.52;3219805;85;21252;-77
2022/12/27 18:07:39;;;;;;;7.00;5.67;;;;;;;3.82;83.85;101051.87;3184398;87;21073;-77
2022/12/27 18:12:38;;;;;;;6.03;4.40;;;;;;;3.80;84.00;101054.36;3258991;85;22359;-76
2022/12/27 18:17:36;;;;;;;9.43;5.20;;;;;;;3.79;83.87;101050.04;3267828;85;21047;-76
2022/12/27 18:22:28;;;;;;;9.63;5.58;;;;;;;3.78;83.87;101044.81;3262842;85;21429;-77
2022/12/27 18:27:23;;;;;;;9.95;4.92;;;;;;;3.76;83.95;101056.72;3241772;85;21032;-75
2022/12/27 18:32:18;;;;;;;6.90;4.67;;;;;;;3.72;84.03;101055.69;3278701;85;21640;-77
2022/12/27 18:37:15;;;;;;;5.85;3.85;;;;;;;3.72;84.15;101060.83;3251900;85;23226;-77
2022/12/27 18:42:26;;;;;;;9.40;5.57;;;;;;;3.72;84.04;101058.26;3249268;85;21431;-76
2022/12/27 18:47:37;;;;;;;9.70;5.78;;;;;;;3.71;84.41;101064.19;3280037;85;21463;-78
2022/12/27 18:52:30;;;;;;;9.35;5.85;;;;;;;3.71;84.27;101075.77;3291648;85;21028;-78
2022/12/27 18:57:35;;;;;;;9.83;6.00;;;;;;;3.69;84.42;101086.38;3282473;85;22252;-77
2022/12/27 19:02:35;;;;;;;;;;;;;;;3.69;84.60;101091.52;3257851;85;20987;-80
2022/12/27 19:07:27;;;;;;;8.58;4.92;;;;;;;3.68;84.49;101089.74;3261639;85;20092;-79
2022/12/27 19:12:37;;;;;;;8.00;5.05;;;;;;;3.69;84.54;101094.09;3234496;85;21027;-78
2022/12/27 19:17:31;;;;;;;10.98;5.40;;;;;;;3.70;84.54;101093.31;3234243;85;21333;-80
2022/12/27 19:22:48;;;;;;;6.30;4.70;;;;;;;3.70;84.34;101099.73;3280468;85;21063;-80
2022/12/27 19:27:39;;;;;;;8.75;5.58;;;;;;;3.71;84.18;101092.89;3322812;83;22010;-82
2022/12/27 19:32:35;;;;;;;7.08;3.95;;;;;;;3.72;84.02;101103.64;3318909;83;21011;-83
2022/12/27 19:37:34;;;;;;;10.15;5.00;;;;;;;3.73;83.72;101101.16;3259861;82;21027;-81
2022/12/27 19:42:30;;;;;;;10.33;5.17;;;;;;;3.74;83.50;101113.22;3341545;83;21068;-80
2022/12/27 19:47:21;;;;;;;9.05;5.10;;;;;;;3.74;83.76;101109.36;3331287;83;21513;-80
2022/12/27 19:52:18;;;;;;;7.37;4.80;;;;;;;3.75;83.66;101108.54;3344657;83;21074;-79
2022/12/27 19:57:13;;;;;;;7.97;5.10;;;;;;;3.75;83.55;101117.54;3358869;83;21028;-79
2022/12/27 20:02:04;;;;;;;6.87;4.80;;;;;;;3.76;83.30;101132.19;3312000;83;20983;-77
2022/12/27 20:06:56;;;;;;;8.13;4.53;;;;;;;3.76;83.36;101139.90;3299773;83;21020;-77
2022/12/27 20:11:50;;;;;;;8.48;4.92;;;;;;;3.76;83.13;101136.45;3309433;83;21648;-76
2022/12/27 20:16:41;;;;;;;8.88;4.62;;;;;;;3.77;83.05;101140.39;3293498;83;22187;-76
2022/12/27 20:21:32;;;;;;;8.60;4.78;;;;;;;3.77;83.15;101139.11;3288334;82;21059;-77
2022/12/27 20:26:25;;;;;;;8.18;5.40;;;;;;;3.78;83.03;101149.86;3294486;83;21022;-78
2022/12/27 20:31:30;;;;;;;8.30;5.37;;;;;;;3.76;83.24;101143.76;3319125;82;21003;-76
2022/12/27 20:36:23;;;;;;;9.10;5.70;;;;;;;3.75;83.16;101148.81;3347705;83;21025;-77
2022/12/27 20:41:18;;;;;;;11.03;5.78;;;;;;;3.71;83.14;101151.63;3339742;82;21035;-76
2022/12/27 20:46:22;;;;;;;10.38;5.17;;;;;;;3.66;83.08;101155.66;3295922;83;20987;-76
2022/12/27 20:51:17;;;;;;;11.08;5.20;;;;;;;3.59;82.93;101164.73;3353694;82;21439;-76
2022/12/27 20:56:09;;;;;;;14.65;5.17;;;;;;;3.52;83.15;101183.20;3323157;83;21306;-78
2022/12/27 21:01:17;;;;;;;10.50;5.47;;;;;;;3.46;83.26;101178.16;3299027;83;20992;-79
2022/12/27 21:06:13;;;;;;;11.65;5.60;;;;;;;3.41;83.33;101180.06;3296749;82;22608;-78
2022/12/27 21:11:15;;;;;;;12.23;6.08;;;;;;;3.38;83.22;101190.59;3284758;83;21007;-75
2022/12/27 21:16:13;;;;;;;11.22;5.53;;;;;;;3.38;83.43;101194.44;3314438;83;20923;-78
2022/12/27 21:21:08;;;;;;;12.37;5.80;;;;;;;3.40;83.37;101198.88;3331362;83;21015;-78
2022/12/27 21:26:10;;;;;;;10.82;4.37;;;;;;;3.44;83.48;101203.37;3343281;83;21305;-77
2022/12/27 21:31:03;;;;;;;10.50;5.10;;;;;;;3.48;83.33;101203.55;3323901;82;21019;-78
2022/12/27 21:35:57;;;;;;;8.90;4.78;;;;;;;3.49;83.24;101213.02;3291270;83;21162;-77
2022/12/27 21:41:12;;;;;;;9.30;5.55;;;;;;;3.50;83.14;101216.95;3341793;83;21015;-77
2022/12/27 21:46:08;;;;;;;12.28;6.15;;;;;;;3.54;83.17;101220.58;3336904;83;20936;-77
2022/12/27 21:51:10;;;;;;;8.60;5.47;;;;;;;3.54;83.10;101223.14;3312099;83;20991;-77
2022/12/27 21:56:02;;;;;;;5.40;4.45;;;;;;;3.54;82.96;101222.77;3361435;82;21071;-78
2022/12/27 22:00:53;;;;;;;14.50;5.25;;;;;;;3.54;82.92;101218.00;3298433;83;21016;-77
2022/12/27 22:05:44;;;;;;;10.55;5.50;;;;;;;3.55;82.86;101228.78;3325411;83;21550;-77
2022/12/27 22:10:48;;;;;;;7.17;4.28;;;;;;;3.55;82.96;101223.64;3297305;83;21011;-78
2022/12/27 22:15:38;;;;;;;11.35;4.97;;;;;;;3.56;82.66;101235.67;3346273;83;20984;-78
2022/12/27 22:20:29;;;;;;;9.85;4.97;;;;;;;3.56;82.82;101241.73;3330674;83;20987;-78
2022/12/27 22:25:20;;;;;;;9.15;5.03;;;;;;;3.56;82.78;101238.25;3308318;83;21469;-78
2022/12/27 22:30:12;;;;;;;7.80;4.58;;;;;;;3.54;82.62;101233.42;3338456;83;21104;-78
2022/12/27 22:35:05;;;;;;;7.53;4.62;;;;;;;3.54;82.56;101242.05;3334928;83;38856;-78
2022/12/27 22:39:56;;;;;;;8.93;4.33;;;;;;;3.55;82.74;101239.06;3305228;83;21019;-78
2022/12/27 22:44:47;;;;;;;9.75;4.60;;;;;;;3.55;82.65;101240.35;3332491;83;22232;-77
2022/12/27 22:49:38;;;;;;;8.80;5.03;;;;;;;3.54;82.78;101235.62;3290369;84;20960;-78
2022/12/27 22:54:29;;;;;;;12.43;5.00;;;;;;;3.55;82.66;101236.50;3308880;82;20953;-78
2022/12/27 22:59:20;;;;;;;13.80;4.87;;;;;;;3.55;82.58;101237.37;3286050;83;20995;-77
2022/12/27 23:04:13;;;;;;;10.70;5.10;;;;;;;3.57;82.62;101225.89;3312930;83;21027;-78
2022/12/27 23:09:08;;;;;;;6.28;4.40;;;;;;;3.56;82.69;101225.39;3310445;83;21275;-77
2022/12/27 23:14:05;;;;;;;8.65;4.90;;;;;;;3.55;82.56;101218.50;3289500;83;21352;-78
2022/12/27 23:18:56;;;;;;;7.70;4.03;;;;;;;3.55;82.64;101212.07;3296946;83;20889;-77
2022/12/27 23:23:47;;;;;;;8.33;5.97;;;;;;;3.55;82.68;101219.78;3312509;82;20912;-78
2022/12/27 23:28:42;;;;;;;8.63;5.67;;;;;;;3.55;82.61;101224.52;3258364;86;21629;-77
2022/12/27 23:33:34;;;;;;;12.53;5.10;;;;;;;3.57;82.50;101222.91;3213686;85;21079;-77
2022/12/27 23:38:26;;;;;;;7.95;4.65;;;;;;;3.57;82.64;101220.75;3276557;86;20995;-77
2022/12/27 23:43:17;;;;;;;9.03;4.75;;;;;;;3.58;82.26;101224.69;3230241;85;21496;-77
2022/12/27 23:48:08;;;;;;;11.20;4.42;;;;;;;3.61;82.54;101229.09;3255266;85;21747;-77
2022/12/27 23:52:58;;;;;;;13.85;5.58;;;;;;;3.59;82.53;101225.56;3262433;85;20975;-77
2022/12/27 23:57:50;;;;;;;8.55;4.70;;;;;;;3.61;82.60;101232.95;3236642;85;21011;-77
